createdAt,value
2023-04-21T00:00:57.516Z,1006.57
2023-04-21T00:01:57.671Z,1006.56
2023-04-21T00:02:57.955Z,1006.56
2023-04-21T00:03:58.195Z,1006.53
2023-04-21T00:05:00.140Z,1006.53
2023-04-21T00:05:58.350Z,1006.52
2023-04-21T00:06:58.483Z,1006.54
2023-04-21T00:07:58.696Z,1006.54
2023-04-21T00:08:59.571Z,1006.53
2023-04-21T00:09:59.071Z,1006.50
2023-04-21T00:10:59.243Z,1006.50
2023-04-21T00:12:00.106Z,1006.49
2023-04-21T00:13:00.576Z,1006.47
2023-04-21T00:13:59.817Z,1006.47
2023-04-21T00:14:59.953Z,1006.49
2023-04-21T00:16:00.286Z,1006.53
2023-04-21T00:17:00.626Z,1006.51
2023-04-21T00:18:00.698Z,1006.43
2023-04-21T00:19:00.547Z,1006.39
2023-04-21T00:20:02.576Z,1006.45
2023-04-21T00:21:01.609Z,1006.40
2023-04-21T00:22:01.634Z,1006.32
2023-04-21T00:23:01.303Z,1006.40
2023-04-21T00:24:02.982Z,1006.40
2023-04-21T00:25:01.586Z,1006.38
2023-04-21T00:26:02.124Z,1006.28
2023-04-21T00:27:01.867Z,1006.36
2023-04-21T00:28:02.017Z,1006.33
2023-04-21T00:29:02.199Z,1006.32
2023-04-21T00:30:03.118Z,1006.33
2023-04-21T00:31:02.562Z,1006.34
2023-04-21T00:32:02.754Z,1006.25
2023-04-21T00:33:03.666Z,1006.26
2023-04-21T00:34:03.131Z,1006.31
2023-04-21T00:35:03.263Z,1006.29
2023-04-21T00:36:03.372Z,1006.32
2023-04-21T00:37:04.638Z,1006.27
2023-04-21T00:38:03.765Z,1006.35
2023-04-21T00:39:03.934Z,1006.29
2023-04-21T00:40:04.624Z,1006.31
2023-04-21T00:41:04.249Z,1006.31
2023-04-21T00:42:04.532Z,1006.32
2023-04-21T00:43:06.083Z,1006.25
2023-04-21T00:44:05.125Z,1006.29
2023-04-21T00:45:05.576Z,1006.29
2023-04-21T00:46:05.051Z,1006.30
2023-04-21T00:47:05.378Z,1006.28
2023-04-21T00:48:05.479Z,1006.24
2023-04-21T00:49:05.523Z,1006.25
2023-04-21T00:50:07.085Z,1006.28
2023-04-21T00:51:05.798Z,1006.28
2023-04-21T00:52:06.071Z,1006.30
2023-04-21T00:53:06.189Z,1006.32
2023-04-21T00:54:07.088Z,1006.29
2023-04-21T00:55:06.466Z,1006.31
2023-04-21T00:56:06.603Z,1006.29
2023-04-21T00:57:07.133Z,1006.30
2023-04-21T00:58:07.605Z,1006.33
2023-04-21T00:59:08.086Z,1006.32
2023-04-21T01:00:08.121Z,1006.29
2023-04-21T01:01:08.197Z,1006.35
2023-04-21T01:02:07.727Z,1006.40
2023-04-21T01:03:08.063Z,1006.41
2023-04-21T01:04:08.163Z,1006.33
2023-04-21T01:05:08.107Z,1006.31
2023-04-21T01:06:08.274Z,1006.41
2023-04-21T01:07:08.462Z,1006.37
2023-04-21T01:08:12.089Z,1006.35
2023-04-21T01:09:08.788Z,1006.39
2023-04-21T01:10:09.585Z,1006.33
2023-04-21T01:11:09.587Z,1006.35
2023-04-21T01:12:09.686Z,1006.37
2023-04-21T01:13:09.452Z,1006.26
2023-04-21T01:14:09.605Z,1006.36
2023-04-21T01:15:09.761Z,1006.39
2023-04-21T01:16:09.942Z,1006.38
2023-04-21T01:17:10.600Z,1006.31
2023-04-21T01:18:10.289Z,1006.32
2023-04-21T01:19:10.530Z,1006.23
2023-04-21T01:20:10.699Z,1006.32
2023-04-21T01:21:10.855Z,1006.28
2023-04-21T01:22:11.069Z,1006.29
2023-04-21T01:23:11.273Z,1006.32
2023-04-21T01:24:11.456Z,1006.28
2023-04-21T01:25:11.624Z,1006.27
2023-04-21T01:26:11.753Z,1006.29
2023-04-21T01:27:11.956Z,1006.29
2023-04-21T01:28:12.190Z,1006.29
2023-04-21T01:29:12.369Z,1006.36
2023-04-21T01:30:13.141Z,1006.34
2023-04-21T01:31:13.595Z,1006.34
2023-04-21T01:32:12.957Z,1006.34
2023-04-21T01:33:13.658Z,1006.29
2023-04-21T01:34:13.177Z,1006.33
2023-04-21T01:35:13.280Z,1006.28
2023-04-21T01:36:14.138Z,1006.39
2023-04-21T01:37:13.638Z,1006.37
2023-04-21T01:38:13.853Z,1006.32
2023-04-21T01:39:14.040Z,1006.36
2023-04-21T01:40:15.116Z,1006.34
2023-04-21T01:41:15.998Z,1006.32
2023-04-21T01:42:15.141Z,1006.26
2023-04-21T01:43:14.699Z,1006.25
2023-04-21T01:44:14.848Z,1006.27
2023-04-21T01:45:14.995Z,1006.29
2023-04-21T01:46:16.613Z,1006.24
2023-04-21T01:47:16.097Z,1006.17
2023-04-21T01:48:15.540Z,1006.28
2023-04-21T01:49:15.657Z,1006.27
2023-04-21T01:50:16.599Z,1006.27
2023-04-21T01:51:15.970Z,1006.31
2023-04-21T01:52:16.168Z,1006.31
2023-04-21T01:53:16.349Z,1006.33
2023-04-21T01:54:16.469Z,1006.40
2023-04-21T01:55:16.651Z,1006.39
2023-04-21T01:56:16.781Z,1006.41
2023-04-21T01:57:17.012Z,1006.48
2023-04-21T01:58:17.103Z,1006.52
2023-04-21T01:59:18.400Z,1006.50
2023-04-21T02:00:17.687Z,1006.55
2023-04-21T02:01:17.621Z,1006.45
2023-04-21T02:02:17.900Z,1006.50
2023-04-21T02:03:18.985Z,1006.43
2023-04-21T02:04:18.339Z,1006.40
2023-04-21T02:05:19.108Z,1006.35
2023-04-21T02:06:18.598Z,1006.30
2023-04-21T02:07:18.752Z,1006.23
2023-04-21T02:08:18.882Z,1006.18
2023-04-21T02:09:19.984Z,1006.22
2023-04-21T02:10:19.188Z,1006.27
2023-04-21T02:11:19.314Z,1006.31
2023-04-21T02:12:19.486Z,1006.36
2023-04-21T02:13:20.138Z,1006.45
2023-04-21T02:14:20.648Z,1006.46
2023-04-21T02:15:20.603Z,1006.44
2023-04-21T02:16:20.185Z,1006.45
2023-04-21T02:17:20.333Z,1006.48
2023-04-21T02:18:21.105Z,1006.46
2023-04-21T02:19:21.002Z,1006.40
2023-04-21T02:20:22.159Z,1006.40
2023-04-21T02:21:20.858Z,1006.41
2023-04-21T02:22:21.647Z,1006.32
2023-04-21T02:23:21.140Z,1006.30
2023-04-21T02:24:21.280Z,1006.26
2023-04-21T02:25:22.164Z,1006.28
2023-04-21T02:26:22.497Z,1006.29
2023-04-21T02:27:22.611Z,1006.29
2023-04-21T02:28:22.087Z,1006.29
2023-04-21T02:29:22.656Z,1006.30
2023-04-21T02:30:22.413Z,1006.35
2023-04-21T02:31:22.635Z,1006.43
2023-04-21T02:32:25.979Z,1006.45
2023-04-21T02:33:25.628Z,1006.46
2023-04-21T02:34:23.095Z,1006.48
2023-04-21T02:35:23.233Z,1006.39
2023-04-21T02:36:25.111Z,1006.08
2023-04-21T02:37:25.108Z,1005.81
2023-04-21T02:38:23.684Z,1005.77
2023-04-21T02:39:23.841Z,1005.90
2023-04-21T02:40:24.653Z,1006.06
2023-04-21T02:41:24.180Z,1006.26
2023-04-21T02:42:24.381Z,1006.34
2023-04-21T02:43:24.506Z,1006.47
2023-04-21T02:44:25.647Z,1006.53
2023-04-21T02:45:24.900Z,1006.48
2023-04-21T02:46:25.686Z,1006.38
2023-04-21T02:47:26.155Z,1006.32
2023-04-21T02:48:25.454Z,1006.30
2023-04-21T02:49:26.635Z,1006.23
2023-04-21T02:50:25.779Z,1006.24
2023-04-21T02:51:26.617Z,1006.23
2023-04-21T02:52:27.117Z,1006.19
2023-04-21T02:53:27.113Z,1006.25
2023-04-21T02:54:26.490Z,1006.29
2023-04-21T02:55:26.756Z,1006.30
2023-04-21T02:56:27.650Z,1006.31
2023-04-21T02:57:27.160Z,1006.25
2023-04-21T02:58:27.314Z,1006.27
2023-04-21T02:59:27.494Z,1006.22
2023-04-21T03:00:29.659Z,1006.24
2023-04-21T03:01:28.006Z,1006.39
2023-04-21T03:02:28.770Z,1006.26
2023-04-21T03:03:28.381Z,1006.15
2023-04-21T03:04:28.649Z,1006.21
2023-04-21T03:05:29.623Z,1006.18
2023-04-21T03:06:28.929Z,1006.17
2023-04-21T03:07:29.001Z,1006.16
2023-04-21T03:08:30.121Z,1006.19
2023-04-21T03:09:29.395Z,1006.18
2023-04-21T03:10:29.598Z,1006.11
2023-04-21T03:11:29.785Z,1006.16
2023-04-21T03:12:30.654Z,1006.17
2023-04-21T03:13:31.161Z,1006.17
2023-04-21T03:14:30.370Z,1006.26
2023-04-21T03:15:31.117Z,1006.22
2023-04-21T03:16:30.869Z,1006.22
2023-04-21T03:17:33.395Z,1006.24
2023-04-21T03:18:32.652Z,1006.17
2023-04-21T03:19:31.290Z,1006.26
2023-04-21T03:20:32.195Z,1006.28
2023-04-21T03:21:31.627Z,1006.24
2023-04-21T03:22:32.652Z,1006.28
2023-04-21T03:23:31.937Z,1006.32
2023-04-21T03:24:32.662Z,1006.22
2023-04-21T03:25:32.384Z,1006.25
2023-04-21T03:26:32.585Z,1006.28
2023-04-21T03:27:32.757Z,1006.20
2023-04-21T03:28:32.930Z,1006.24
2023-04-21T03:29:33.657Z,1006.21
2023-04-21T03:30:33.317Z,1006.17
2023-04-21T03:31:34.664Z,1006.22
2023-04-21T03:32:33.708Z,1006.21
2023-04-21T03:33:34.922Z,1006.15
2023-04-21T03:34:34.635Z,1006.11
2023-04-21T03:35:34.316Z,1006.13
2023-04-21T03:36:34.792Z,1006.13
2023-04-21T03:37:34.714Z,1006.11
2023-04-21T03:38:35.622Z,1006.17
2023-04-21T03:39:35.178Z,1006.14
2023-04-21T03:40:35.234Z,1006.07
2023-04-21T03:41:36.129Z,1006.02
2023-04-21T03:42:35.654Z,1006.04
2023-04-21T03:43:35.825Z,1005.97
2023-04-21T03:44:36.011Z,1006.00
2023-04-21T03:45:36.225Z,1005.98
2023-04-21T03:46:38.171Z,1005.89
2023-04-21T03:47:36.561Z,1005.84
2023-04-21T03:48:36.708Z,1005.89
2023-04-21T03:49:36.871Z,1005.94
2023-04-21T03:50:37.010Z,1006.12
2023-04-21T03:51:38.646Z,1006.21
2023-04-21T03:52:37.364Z,1006.22
2023-04-21T03:53:39.515Z,1006.25
2023-04-21T03:54:37.828Z,1006.27
2023-04-21T03:55:37.966Z,1006.25
2023-04-21T03:56:38.154Z,1006.15
2023-04-21T03:57:38.680Z,1006.07
2023-04-21T03:58:38.431Z,1006.06
2023-04-21T03:59:38.560Z,1006.13
2023-04-21T04:00:39.179Z,1006.17
2023-04-21T04:01:38.916Z,1006.18
2023-04-21T04:02:39.789Z,1006.24
2023-04-21T04:03:39.423Z,1006.16
2023-04-21T04:04:40.384Z,1006.15
2023-04-21T04:05:39.778Z,1006.15
2023-04-21T04:06:39.879Z,1006.10
2023-04-21T04:07:41.642Z,1006.08
2023-04-21T04:08:40.227Z,1006.00
2023-04-21T04:09:40.569Z,1006.04
2023-04-21T04:10:42.630Z,1005.99
2023-04-21T04:11:40.854Z,1006.02
2023-04-21T04:12:41.661Z,1006.00
2023-04-21T04:13:43.631Z,1005.95
2023-04-21T04:14:41.315Z,1005.98
2023-04-21T04:15:41.469Z,1005.94
2023-04-21T04:16:41.684Z,1005.99
2023-04-21T04:17:42.566Z,1006.02
2023-04-21T04:18:41.974Z,1006.00
2023-04-21T04:19:42.094Z,1006.00
2023-04-21T04:20:42.331Z,1006.01
2023-04-21T04:21:44.806Z,1006.00
2023-04-21T04:22:42.650Z,1006.02
2023-04-21T04:23:42.806Z,1006.01
2023-04-21T04:24:43.635Z,1006.05
2023-04-21T04:25:43.166Z,1006.02
2023-04-21T04:26:44.184Z,1006.02
2023-04-21T04:27:43.423Z,1005.95
2023-04-21T04:28:43.570Z,1006.00
2023-04-21T04:29:44.633Z,1006.06
2023-04-21T04:30:45.131Z,1006.03
2023-04-21T04:31:44.135Z,1006.00
2023-04-21T04:32:44.384Z,1006.02
2023-04-21T04:33:44.584Z,1005.97
2023-04-21T04:34:45.194Z,1006.00
2023-04-21T04:35:44.946Z,1005.98
2023-04-21T04:36:45.192Z,1005.99
2023-04-21T04:37:45.339Z,1005.98
2023-04-21T04:38:45.492Z,1005.97
2023-04-21T04:39:45.612Z,1005.90
2023-04-21T04:40:45.720Z,1005.93
2023-04-21T04:41:45.966Z,1005.91
2023-04-21T04:42:46.111Z,1005.95
2023-04-21T04:43:47.134Z,1005.88
2023-04-21T04:44:46.434Z,1005.88
2023-04-21T04:45:46.575Z,1005.86
2023-04-21T04:46:46.769Z,1005.84
2023-04-21T04:47:47.025Z,1005.87
2023-04-21T04:48:47.184Z,1005.87
2023-04-21T04:49:47.323Z,1005.90
2023-04-21T04:50:47.470Z,1005.84
2023-04-21T04:51:48.656Z,1005.85
2023-04-21T04:52:47.818Z,1005.80
2023-04-21T04:53:48.699Z,1005.78
2023-04-21T04:54:48.193Z,1005.74
2023-04-21T04:55:48.351Z,1005.72
2023-04-21T04:56:48.515Z,1005.72
2023-04-21T04:57:48.664Z,1005.81
2023-04-21T04:58:48.801Z,1005.80
2023-04-21T04:59:50.138Z,1005.85
2023-04-21T05:00:49.112Z,1005.84
2023-04-21T05:01:50.708Z,1005.82
2023-04-21T05:02:49.855Z,1005.71
2023-04-21T05:03:50.773Z,1005.76
2023-04-21T05:04:50.762Z,1005.73
2023-04-21T05:05:50.097Z,1005.77
2023-04-21T05:06:50.225Z,1005.73
2023-04-21T05:07:51.141Z,1005.73
2023-04-21T05:08:50.536Z,1005.79
2023-04-21T05:09:51.665Z,1005.72
2023-04-21T05:10:52.657Z,1005.71
2023-04-21T05:11:51.152Z,1005.68
2023-04-21T05:12:52.142Z,1005.68
2023-04-21T05:13:52.142Z,1005.65
2023-04-21T05:14:52.193Z,1005.69
2023-04-21T05:15:52.685Z,1005.66
2023-04-21T05:16:52.782Z,1005.70
2023-04-21T05:17:54.170Z,1005.66
2023-04-21T05:18:52.392Z,1005.68
2023-04-21T05:19:52.523Z,1005.67
2023-04-21T05:20:52.679Z,1005.70
2023-04-21T05:21:52.820Z,1005.67
2023-04-21T05:22:52.938Z,1005.65
2023-04-21T05:23:53.167Z,1005.73
2023-04-21T05:24:53.287Z,1005.69
2023-04-21T05:25:54.031Z,1005.69
2023-04-21T05:26:54.537Z,1005.64
2023-04-21T05:27:53.757Z,1005.67
2023-04-21T05:28:53.996Z,1005.67
2023-04-21T05:29:54.119Z,1005.66
2023-04-21T05:30:54.276Z,1005.66
2023-04-21T05:31:54.482Z,1005.67
2023-04-21T05:32:55.080Z,1005.63
2023-04-21T05:33:54.748Z,1005.68
2023-04-21T05:34:54.891Z,1005.60
2023-04-21T05:35:55.050Z,1005.58
2023-04-21T05:36:55.696Z,1005.57
2023-04-21T05:37:55.325Z,1005.64
2023-04-21T05:38:55.484Z,1005.69
2023-04-21T05:39:55.637Z,1005.60
2023-04-21T05:40:56.266Z,1005.67
2023-04-21T05:41:55.906Z,1005.66
2023-04-21T05:42:56.063Z,1005.56
2023-04-21T05:43:57.649Z,1005.47
2023-04-21T05:44:56.359Z,1005.54
2023-04-21T05:45:56.539Z,1005.42
2023-04-21T05:46:57.548Z,1005.55
2023-04-21T05:47:56.936Z,1005.55
2023-04-21T05:48:57.076Z,1005.54
2023-04-21T05:49:58.234Z,1005.49
2023-04-21T05:50:58.155Z,1005.52
2023-04-21T05:51:59.149Z,1005.48
2023-04-21T05:52:57.873Z,1005.50
2023-04-21T05:53:58.696Z,1005.47
2023-04-21T05:54:58.239Z,1005.50
2023-04-21T05:55:59.163Z,1005.51
2023-04-21T05:56:58.538Z,1005.46
2023-04-21T05:57:59.192Z,1005.53
2023-04-21T05:58:59.670Z,1005.44
2023-04-21T05:59:59.043Z,1005.39
2023-04-21T06:00:59.696Z,1005.38
2023-04-21T06:01:59.311Z,1005.33
2023-04-21T06:02:59.514Z,1005.36
2023-04-21T06:03:59.670Z,1005.29
2023-04-21T06:05:00.965Z,1005.33
2023-04-21T06:05:59.961Z,1005.31
2023-04-21T06:07:00.124Z,1005.28
2023-04-21T06:08:03.094Z,1005.21
2023-04-21T06:09:00.410Z,1005.16
2023-04-21T06:10:00.573Z,1005.04
2023-04-21T06:11:01.652Z,1005.05
2023-04-21T06:12:01.903Z,1005.04
2023-04-21T06:13:02.151Z,1005.03
2023-04-21T06:14:02.169Z,1005.02
2023-04-21T06:15:01.445Z,1004.92
2023-04-21T06:16:01.736Z,1004.91
2023-04-21T06:17:02.698Z,1004.97
2023-04-21T06:18:01.993Z,1004.95
2023-04-21T06:19:02.659Z,1004.92
2023-04-21T06:20:02.301Z,1004.94
2023-04-21T06:21:02.610Z,1004.89
2023-04-21T06:22:03.633Z,1004.94
2023-04-21T06:23:02.893Z,1004.85
2023-04-21T06:24:03.048Z,1004.92
2023-04-21T06:25:03.235Z,1004.84
2023-04-21T06:26:03.402Z,1004.89
2023-04-21T06:27:03.544Z,1004.90
2023-04-21T06:28:03.714Z,1004.86
2023-04-21T06:29:05.170Z,1004.83
2023-04-21T06:30:04.054Z,1004.86
2023-04-21T06:31:06.855Z,1004.82
2023-04-21T06:32:04.517Z,1004.80
2023-04-21T06:33:04.715Z,1004.82
2023-04-21T06:34:05.778Z,1004.74
2023-04-21T06:35:05.029Z,1004.73
2023-04-21T06:36:05.149Z,1004.65
2023-04-21T06:37:06.399Z,1004.65
2023-04-21T06:38:05.613Z,1004.59
2023-04-21T06:39:05.762Z,1004.59
2023-04-21T06:40:06.662Z,1004.59
2023-04-21T06:41:06.705Z,1004.57
2023-04-21T06:42:07.164Z,1004.59
2023-04-21T06:43:06.436Z,1004.49
2023-04-21T06:44:06.601Z,1004.53
2023-04-21T06:45:07.717Z,1004.56
2023-04-21T06:46:07.704Z,1004.57
2023-04-21T06:47:07.261Z,1004.53
2023-04-21T06:48:08.229Z,1004.51
2023-04-21T06:49:07.718Z,1004.53
2023-04-21T06:50:09.068Z,1004.52
2023-04-21T06:51:10.164Z,1004.45
2023-04-21T06:52:08.144Z,1004.50
2023-04-21T06:53:09.164Z,1004.53
2023-04-21T06:54:08.521Z,1004.46
2023-04-21T06:55:08.669Z,1004.45
2023-04-21T06:56:08.838Z,1004.59
2023-04-21T06:57:08.975Z,1004.51
2023-04-21T06:58:09.680Z,1004.55
2023-04-21T06:59:10.184Z,1004.53
2023-04-21T07:00:09.463Z,1004.54
2023-04-21T07:01:09.597Z,1004.61
2023-04-21T07:02:09.804Z,1004.55
2023-04-21T07:03:10.838Z,1004.55
2023-04-21T07:04:10.202Z,1004.59
2023-04-21T07:05:11.169Z,1004.63
2023-04-21T07:06:10.529Z,1004.64
2023-04-21T07:07:11.682Z,1004.62
2023-04-21T07:08:11.220Z,1004.55
2023-04-21T07:09:11.120Z,1004.58
2023-04-21T07:10:12.155Z,1004.61
2023-04-21T07:11:11.476Z,1004.61
2023-04-21T07:12:11.641Z,1004.66
2023-04-21T07:13:12.703Z,1004.62
2023-04-21T07:14:11.959Z,1004.51
2023-04-21T07:15:12.131Z,1004.61
2023-04-21T07:16:12.283Z,1004.63
2023-04-21T07:17:12.706Z,1004.60
2023-04-21T07:18:12.644Z,1004.61
2023-04-21T07:19:12.838Z,1004.62
2023-04-21T07:20:14.669Z,1004.65
2023-04-21T07:21:13.138Z,1004.63
2023-04-21T07:22:14.063Z,1004.64
2023-04-21T07:23:13.415Z,1004.63
2023-04-21T07:24:13.560Z,1004.67
2023-04-21T07:25:13.714Z,1004.65
2023-04-21T07:26:13.834Z,1004.66
2023-04-21T07:27:14.021Z,1004.71
2023-04-21T07:28:14.164Z,1004.68
2023-04-21T07:29:15.691Z,1004.69
2023-04-21T07:30:14.551Z,1004.67
2023-04-21T07:31:14.768Z,1004.56
2023-04-21T07:32:14.923Z,1004.58
2023-04-21T07:33:15.721Z,1004.58
2023-04-21T07:34:15.192Z,1004.64
2023-04-21T07:35:15.335Z,1004.67
2023-04-21T07:36:16.086Z,1004.64
2023-04-21T07:37:15.695Z,1004.69
2023-04-21T07:38:17.196Z,1004.72
2023-04-21T07:39:16.032Z,1004.63
2023-04-21T07:40:16.271Z,1004.67
2023-04-21T07:41:16.401Z,1004.61
2023-04-21T07:42:16.549Z,1004.59
2023-04-21T07:43:16.729Z,1004.59
2023-04-21T07:44:17.566Z,1004.55
2023-04-21T07:45:19.233Z,1004.46
2023-04-21T07:46:17.289Z,1004.46
2023-04-21T07:47:17.354Z,1004.47
2023-04-21T07:48:17.663Z,1004.47
2023-04-21T07:49:17.858Z,1004.43
2023-04-21T07:50:17.958Z,1004.39
2023-04-21T07:51:18.139Z,1004.37
2023-04-21T07:52:18.261Z,1004.32
2023-04-21T07:53:18.410Z,1004.28
2023-04-21T07:54:18.567Z,1004.26
2023-04-21T07:55:18.725Z,1004.08
2023-04-21T07:56:20.182Z,1004.02
2023-04-21T07:57:19.070Z,1004.00
2023-04-21T07:58:19.271Z,1003.90
2023-04-21T07:59:19.564Z,1003.92
2023-04-21T08:00:20.217Z,1003.89
2023-04-21T08:01:19.743Z,1003.83
2023-04-21T08:02:20.015Z,1003.83
2023-04-21T08:03:22.068Z,1003.86
2023-04-21T08:04:20.797Z,1003.82
2023-04-21T08:05:21.344Z,1003.82
2023-04-21T08:06:21.108Z,1003.72
2023-04-21T08:07:21.787Z,1003.79
2023-04-21T08:08:21.029Z,1003.77
2023-04-21T08:09:23.015Z,1003.77
2023-04-21T08:10:22.189Z,1003.85
2023-04-21T08:11:22.230Z,1003.79
2023-04-21T08:12:21.628Z,1003.74
2023-04-21T08:13:21.776Z,1003.80
2023-04-21T08:14:22.051Z,1003.83
2023-04-21T08:15:23.712Z,1003.85
2023-04-21T08:16:22.414Z,1003.88
2023-04-21T08:17:23.206Z,1003.92
2023-04-21T08:18:23.422Z,1003.95
2023-04-21T08:19:22.885Z,1003.93
2023-04-21T08:20:23.116Z,1004.01
2023-04-21T08:21:23.197Z,1003.98
2023-04-21T08:22:23.460Z,1004.00
2023-04-21T08:23:23.539Z,1004.02
2023-04-21T08:24:23.919Z,1004.03
2023-04-21T08:25:23.943Z,1004.03
2023-04-21T08:26:24.112Z,1004.06
2023-04-21T08:27:24.318Z,1004.06
2023-04-21T08:28:24.482Z,1004.03
2023-04-21T08:29:24.649Z,1004.10
2023-04-21T08:30:24.821Z,1004.06
2023-04-21T08:31:25.002Z,1004.08
2023-04-21T08:32:25.169Z,1004.08
2023-04-21T08:33:25.325Z,1004.11
2023-04-21T08:34:27.637Z,1004.08
2023-04-21T08:35:26.756Z,1004.14
2023-04-21T08:36:29.551Z,1004.11
2023-04-21T08:37:26.976Z,1004.15
2023-04-21T08:38:26.749Z,1004.19
2023-04-21T08:39:26.414Z,1004.20
2023-04-21T08:40:26.600Z,1004.23
2023-04-21T08:41:26.831Z,1004.21
2023-04-21T08:42:26.993Z,1004.20
2023-04-21T08:43:27.137Z,1004.18
2023-04-21T08:44:28.136Z,1004.19
2023-04-21T08:45:27.702Z,1004.14
2023-04-21T08:46:28.883Z,1004.11
2023-04-21T08:47:28.042Z,1004.07
2023-04-21T08:48:28.853Z,1004.00
2023-04-21T08:49:28.335Z,1004.00
2023-04-21T08:50:28.463Z,1003.99
2023-04-21T08:51:29.588Z,1003.95
2023-04-21T08:52:28.845Z,1003.86
2023-04-21T08:53:29.008Z,1003.84
2023-04-21T08:54:30.196Z,1003.90
2023-04-21T08:55:30.362Z,1003.80
2023-04-21T08:56:29.509Z,1003.79
2023-04-21T08:57:29.662Z,1003.76
2023-04-21T08:58:30.737Z,1003.77
2023-04-21T08:59:29.952Z,1003.70
2023-04-21T09:00:30.100Z,1003.70
2023-04-21T09:01:31.269Z,1003.69
2023-04-21T09:02:30.500Z,1003.70
2023-04-21T09:03:30.781Z,1003.73
2023-04-21T09:04:31.242Z,1003.70
2023-04-21T09:05:31.208Z,1003.68
2023-04-21T09:06:31.283Z,1003.68
2023-04-21T09:07:33.233Z,1003.66
2023-04-21T09:08:31.587Z,1003.62
2023-04-21T09:09:32.587Z,1003.65
2023-04-21T09:10:31.942Z,1003.69
2023-04-21T09:11:32.074Z,1003.67
2023-04-21T09:12:32.742Z,1003.64
2023-04-21T09:13:33.202Z,1003.66
2023-04-21T09:14:32.758Z,1003.68
2023-04-21T09:15:32.778Z,1003.60
2023-04-21T09:16:33.069Z,1003.64
2023-04-21T09:17:33.196Z,1003.49
2023-04-21T09:18:33.218Z,1003.52
2023-04-21T09:19:33.370Z,1003.56
2023-04-21T09:20:35.096Z,1003.49
2023-04-21T09:21:34.199Z,1003.49
2023-04-21T09:22:33.843Z,1003.46
2023-04-21T09:23:35.712Z,1003.38
2023-04-21T09:24:34.189Z,1003.38
2023-04-21T09:25:36.206Z,1003.42
2023-04-21T09:26:36.896Z,1003.38
2023-04-21T09:27:36.256Z,1003.40
2023-04-21T09:28:34.984Z,1003.38
2023-04-21T09:29:35.168Z,1003.29
2023-04-21T09:30:35.340Z,1003.22
2023-04-21T09:31:36.684Z,1003.25
2023-04-21T09:32:36.296Z,1003.19
2023-04-21T09:33:42.485Z,1003.23
2023-04-21T09:34:37.966Z,1003.22
2023-04-21T09:35:36.720Z,1003.22
2023-04-21T09:36:36.274Z,1003.22
2023-04-21T09:37:36.438Z,1003.18
2023-04-21T09:38:38.213Z,1003.16
2023-04-21T09:39:46.307Z,1003.20
2023-04-21T09:40:39.062Z,1003.20
2023-04-21T09:41:38.103Z,1003.14
2023-04-21T09:42:39.782Z,1003.15
2023-04-21T09:43:39.247Z,1003.13
2023-04-21T09:44:49.474Z,1003.04
2023-04-21T09:45:40.903Z,1003.02
2023-04-21T09:46:39.781Z,1002.93
2023-04-21T09:47:38.201Z,1002.94
2023-04-21T09:48:38.411Z,1002.95
2023-04-21T09:49:40.210Z,1002.90
2023-04-21T09:51:20.974Z,1002.92
2023-04-21T09:52:02.164Z,1002.86
2023-04-21T09:52:41.016Z,1002.82
2023-04-21T09:53:39.244Z,1002.73
2023-04-21T09:54:39.384Z,1002.61
2023-04-21T09:55:40.301Z,1002.55
2023-04-21T09:56:40.730Z,1002.34
2023-04-21T09:57:39.977Z,1002.23
2023-04-21T09:58:40.134Z,1002.11
2023-04-21T09:59:40.297Z,1002.05
2023-04-21T10:00:40.492Z,1001.99
2023-04-21T10:01:40.694Z,1001.93
2023-04-21T10:02:41.899Z,1001.93
2023-04-21T10:03:42.100Z,1001.88
2023-04-21T10:04:41.547Z,1001.84
2023-04-21T10:05:42.813Z,1001.87
2023-04-21T10:06:42.624Z,1001.78
2023-04-21T10:07:42.263Z,1001.85
2023-04-21T10:08:43.605Z,1001.92
2023-04-21T10:09:42.768Z,1001.86
2023-04-21T10:10:42.293Z,1001.84
2023-04-21T10:11:42.478Z,1001.79
2023-04-21T10:12:42.643Z,1001.78
2023-04-21T10:13:42.802Z,1001.84
2023-04-21T10:14:42.959Z,1001.75
2023-04-21T10:15:43.423Z,1001.79
2023-04-21T10:16:43.344Z,1001.79
2023-04-21T10:17:43.467Z,1001.69
2023-04-21T10:18:43.733Z,1001.68
2023-04-21T10:19:44.807Z,1001.67
2023-04-21T10:20:43.978Z,1001.74
2023-04-21T10:21:44.768Z,1001.74
2023-04-21T10:22:45.225Z,1001.79
2023-04-21T10:23:44.471Z,1001.79
2023-04-21T10:24:44.776Z,1001.82
2023-04-21T10:25:45.609Z,1001.88
2023-04-21T10:26:45.767Z,1001.93
2023-04-21T10:27:45.148Z,1002.00
2023-04-21T10:28:45.295Z,1002.11
2023-04-21T10:29:56.235Z,1002.24
2023-04-21T10:30:47.616Z,1002.21
2023-04-21T10:31:45.921Z,1002.23
2023-04-21T10:32:46.102Z,1002.20
2023-04-21T10:33:47.225Z,1002.20
2023-04-21T10:34:47.753Z,1002.24
2023-04-21T10:35:46.648Z,1002.30
2023-04-21T10:36:47.768Z,1002.32
2023-04-21T10:37:47.794Z,1002.36
2023-04-21T10:38:47.188Z,1002.34
2023-04-21T10:39:47.348Z,1002.38
2023-04-21T10:40:47.522Z,1002.43
2023-04-21T10:41:48.276Z,1002.31
2023-04-21T10:42:47.779Z,1002.34
2023-04-21T10:43:49.479Z,1002.30
2023-04-21T10:44:49.290Z,1002.23
2023-04-21T10:45:49.726Z,1002.29
2023-04-21T10:46:48.539Z,1002.25
2023-04-21T10:47:48.731Z,1002.26
2023-04-21T10:48:48.729Z,1002.38
2023-04-21T10:49:48.854Z,1002.40
2023-04-21T10:50:49.795Z,1002.40
2023-04-21T10:51:50.725Z,1002.39
2023-04-21T10:52:50.314Z,1002.35
2023-04-21T10:53:50.529Z,1002.38
2023-04-21T10:54:49.697Z,1002.37
2023-04-21T10:55:50.737Z,1002.37
2023-04-21T10:56:51.744Z,1002.45
2023-04-21T10:57:50.231Z,1002.38
2023-04-21T10:58:51.737Z,1002.36
2023-04-21T10:59:50.612Z,1002.41
2023-04-21T11:00:50.813Z,1002.46
2023-04-21T11:01:50.996Z,1002.46
2023-04-21T11:02:51.248Z,1002.48
2023-04-21T11:03:51.492Z,1002.45
2023-04-21T11:04:52.002Z,1002.46
2023-04-21T11:05:51.766Z,1002.43
2023-04-21T11:06:51.948Z,1002.45
2023-04-21T11:07:54.119Z,1002.44
2023-04-21T11:08:52.734Z,1002.45
2023-04-21T11:09:52.384Z,1002.35
2023-04-21T11:10:52.568Z,1002.35
2023-04-21T11:11:52.703Z,1002.36
2023-04-21T11:12:52.878Z,1002.36
2023-04-21T11:13:53.620Z,1002.32
2023-04-21T11:14:54.126Z,1002.33
2023-04-21T11:15:53.797Z,1002.31
2023-04-21T11:16:53.709Z,1002.37
2023-04-21T11:17:54.819Z,1002.28
2023-04-21T11:18:54.960Z,1002.28
2023-04-21T11:19:54.676Z,1002.28
2023-04-21T11:20:56.232Z,1002.31
2023-04-21T11:21:56.129Z,1002.25
2023-04-21T11:22:55.734Z,1002.24
2023-04-21T11:23:54.859Z,1002.22
2023-04-21T11:24:55.015Z,1002.23
2023-04-21T11:25:55.769Z,1002.10
2023-04-21T11:26:56.801Z,1002.11
2023-04-21T11:27:56.284Z,1002.01
2023-04-21T11:28:57.237Z,1001.92
2023-04-21T11:29:56.745Z,1001.88
2023-04-21T11:30:56.053Z,1001.76
2023-04-21T11:31:56.309Z,1001.83
2023-04-21T11:32:57.159Z,1001.73
2023-04-21T11:33:56.676Z,1001.69
2023-04-21T11:34:58.753Z,1001.66
2023-04-21T11:35:56.986Z,1001.63
2023-04-21T11:36:57.150Z,1001.61
2023-04-21T11:37:57.320Z,1001.52
2023-04-21T11:38:57.462Z,1001.48
2023-04-21T11:39:58.290Z,1001.47
2023-04-21T11:40:58.634Z,1001.45
2023-04-21T11:41:58.785Z,1001.42
2023-04-21T11:42:58.299Z,1001.40
2023-04-21T11:43:58.337Z,1001.32
2023-04-21T11:44:58.459Z,1001.32
2023-04-21T11:45:58.644Z,1001.27
2023-04-21T11:46:59.798Z,1001.25
2023-04-21T11:48:00.281Z,1001.19
2023-04-21T11:48:59.806Z,1001.11
2023-04-21T11:50:00.299Z,1001.07
2023-04-21T11:50:59.506Z,1001.03
2023-04-21T11:51:59.761Z,1000.92
2023-04-21T11:52:59.897Z,1000.90
2023-04-21T11:54:00.813Z,1000.88
2023-04-21T11:55:00.788Z,1000.84
2023-04-21T11:56:00.388Z,1000.87
2023-04-21T11:57:02.574Z,1000.81
2023-04-21T11:58:02.249Z,1000.79
2023-04-21T11:59:01.750Z,1000.76
2023-04-21T12:00:01.030Z,1000.78
2023-04-21T12:01:01.197Z,1000.80
2023-04-21T12:02:01.414Z,1000.69
2023-04-21T12:03:01.585Z,1000.57
2023-04-21T12:04:01.932Z,1000.55
2023-04-21T12:05:02.257Z,1000.55
2023-04-21T12:06:02.793Z,1000.53
2023-04-21T12:07:02.216Z,1000.53
2023-04-21T12:08:02.405Z,1000.50